sensor_id;sensor_type;location;lat;lon;timestamp;pressure;altitude;pressure_sealevel;temperature;humidity
61345;BME280;47216;42.656;23.232;2022-12-07T00:01:24;93885.03;;;5.47;82.35
61345;BME280;47216;42.656;23.232;2022-12-07T00:03:53;93883.22;;;5.47;82.29
61345;BME280;47216;42.656;23.232;2022-12-07T00:06:22;93876.50;;;5.46;82.66
61345;BME280;47216;42.656;23.232;2022-12-07T00:08:48;93866.09;;;5.53;82.21
61345;BME280;47216;42.656;23.232;2022-12-07T00:11:16;93866.53;;;5.50;82.11
61345;BME280;47216;42.656;23.232;2022-12-07T00:13:43;93865.78;;;5.43;82.49
61345;BME280;47216;42.656;23.232;2022-12-07T00:16:11;93864.00;;;5.43;82.61
61345;BME280;47216;42.656;23.232;2022-12-07T00:18:38;93866.53;;;5.50;82.78
61345;BME280;47216;42.656;23.232;2022-12-07T00:21:06;93865.72;;;5.50;82.16
61345;BME280;47216;42.656;23.232;2022-12-07T00:23:33;93867.38;;;5.44;82.77
61345;BME280;47216;42.656;23.232;2022-12-07T00:26:04;93876.50;;;5.46;82.70
61345;BME280;47216;42.656;23.232;2022-12-07T00:28:30;93872.88;;;5.47;82.14
61345;BME280;47216;42.656;23.232;2022-12-07T00:30:59;93873.25;;;5.51;82.51
61345;BME280;47216;42.656;23.232;2022-12-07T00:33:26;93862.19;;;5.44;82.65
61345;BME280;47216;42.656;23.232;2022-12-07T00:35:54;93856.25;;;5.43;83.06
61345;BME280;47216;42.656;23.232;2022-12-07T00:38:22;93864.91;;;5.49;82.58
61345;BME280;47216;42.656;23.232;2022-12-07T00:40:53;93866.00;;;5.41;83.16
61345;BME280;47216;42.656;23.232;2022-12-07T00:43:20;93873.75;;;5.41;83.30
61345;BME280;47216;42.656;23.232;2022-12-07T00:45:46;93874.97;;;5.39;82.90
61345;BME280;47216;42.656;23.232;2022-12-07T00:48:13;93876.50;;;5.46;83.41
61345;BME280;47216;42.656;23.232;2022-12-07T00:50:39;93871.75;;;5.43;83.14
61345;BME280;47216;42.656;23.232;2022-12-07T00:53:06;93871.59;;;5.38;83.58
61345;BME280;47216;42.656;23.232;2022-12-07T00:55:34;93873.63;;;5.36;83.74
61345;BME280;47216;42.656;23.232;2022-12-07T00:58:00;93874.75;;;5.40;83.60
61345;BME280;47216;42.656;23.232;2022-12-07T01:00:27;93870.94;;;5.43;83.69
61345;BME280;47216;42.656;23.232;2022-12-07T01:02:53;93873.75;;;5.41;83.66
61345;BME280;47216;42.656;23.232;2022-12-07T01:05:20;93874.59;;;5.35;84.02
61345;BME280;47216;42.656;23.232;2022-12-07T01:07:47;93864.19;;;5.42;83.68
61345;BME280;47216;42.656;23.232;2022-12-07T01:10:13;93859.41;;;5.45;83.43
61345;BME280;47216;42.656;23.232;2022-12-07T01:12:41;93864.72;;;5.51;83.48
61345;BME280;47216;42.656;23.232;2022-12-07T01:15:08;93852.28;;;5.41;83.70
61345;BME280;47216;42.656;23.232;2022-12-07T01:17:35;93851.22;;;5.48;83.31
61345;BME280;47216;42.656;23.232;2022-12-07T01:20:02;93855.81;;;5.46;83.17
61345;BME280;47216;42.656;23.232;2022-12-07T01:22:29;93851.66;;;5.45;83.11
61345;BME280;47216;42.656;23.232;2022-12-07T01:24:55;93847.91;;;5.41;83.95
61345;BME280;47216;42.656;23.232;2022-12-07T01:27:22;93846.03;;;5.48;83.40
61345;BME280;47216;42.656;23.232;2022-12-07T01:29:50;93837.84;;;5.52;83.19
61345;BME280;47216;42.656;23.232;2022-12-07T01:32:17;93839.84;;;5.50;82.90
61345;BME280;47216;42.656;23.232;2022-12-07T01:34:43;93849.84;;;5.46;82.96
61345;BME280;47216;42.656;23.232;2022-12-07T01:37:10;93845.91;;;5.43;83.17
61345;BME280;47216;42.656;23.232;2022-12-07T01:39:36;93849.72;;;5.41;83.40
61345;BME280;47216;42.656;23.232;2022-12-07T01:42:03;93841.94;;;5.41;83.46
61345;BME280;47216;42.656;23.232;2022-12-07T01:44:29;93847.47;;;5.44;83.08
61345;BME280;47216;42.656;23.232;2022-12-07T01:46:59;93847.91;;;5.41;83.11
61345;BME280;47216;42.656;23.232;2022-12-07T01:49:28;93849.34;;;5.37;83.59
61345;BME280;47216;42.656;23.232;2022-12-07T01:51:57;93844.31;;;5.42;83.71
61345;BME280;47216;42.656;23.232;2022-12-07T01:54:24;93836.97;;;5.39;82.95
61345;BME280;47216;42.656;23.232;2022-12-07T01:56:53;93841.84;;;5.47;83.17
61345;BME280;47216;42.656;23.232;2022-12-07T01:59:21;93835.25;;;5.52;82.99
61345;BME280;47216;42.656;23.232;2022-12-07T02:01:49;93829.94;;;5.46;82.86
61345;BME280;47216;42.656;23.232;2022-12-07T02:04:17;93826.19;;;5.42;83.61
61345;BME280;47216;42.656;23.232;2022-12-07T02:06:44;93826.34;;;5.47;83.08
61345;BME280;47216;42.656;23.232;2022-12-07T02:09:11;93832.09;;;5.31;83.02
61345;BME280;47216;42.656;23.232;2022-12-07T02:11:38;93827.34;;;5.28;83.77
61345;BME280;47216;42.656;23.232;2022-12-07T02:14:06;93832.81;;;5.38;83.99
61345;BME280;47216;42.656;23.232;2022-12-07T02:16:34;93831.03;;;5.39;83.71
61345;BME280;47216;42.656;23.232;2022-12-07T02:19:14;93830.44;;;5.37;83.52
61345;BME280;47216;42.656;23.232;2022-12-07T02:21:47;93820.69;;;5.39;83.65
61345;BME280;47216;42.656;23.232;2022-12-07T02:24:19;93826.44;;;5.41;83.67
61345;BME280;47216;42.656;23.232;2022-12-07T02:27:03;93815.84;;;5.42;83.74
61345;BME280;47216;42.656;23.232;2022-12-07T02:29:35;93820.19;;;5.48;82.93
61345;BME280;47216;42.656;23.232;2022-12-07T02:32:07;93816.50;;;5.38;83.37
61345;BME280;47216;42.656;23.232;2022-12-07T02:34:37;93823.19;;;5.45;82.96
61345;BME280;47216;42.656;23.232;2022-12-07T02:37:09;93825.03;;;5.38;83.15
61345;BME280;47216;42.656;23.232;2022-12-07T02:39:38;93820.88;;;5.37;82.61
61345;BME280;47216;42.656;23.232;2022-12-07T02:42:07;93822.75;;;5.30;83.82
61345;BME280;47216;42.656;23.232;2022-12-07T02:44:37;93824.41;;;5.43;83.11
61345;BME280;47216;42.656;23.232;2022-12-07T02:47:05;93810.56;;;5.37;82.75
61345;BME280;47216;42.656;23.232;2022-12-07T02:49:33;93814.28;;;5.41;82.81
61345;BME280;47216;42.656;23.232;2022-12-07T02:52:00;93799.44;;;5.37;83.35
61345;BME280;47216;42.656;23.232;2022-12-07T02:54:26;93795.63;;;5.39;82.70
61345;BME280;47216;42.656;23.232;2022-12-07T02:56:54;93792.72;;;5.29;83.13
61345;BME280;47216;42.656;23.232;2022-12-07T02:59:25;93790.00;;;5.24;83.15
61345;BME280;47216;42.656;23.232;2022-12-07T03:01:58;93794.38;;;5.23;83.47
61345;BME280;47216;42.656;23.232;2022-12-07T03:04:33;93790.88;;;5.18;83.39
61345;BME280;47216;42.656;23.232;2022-12-07T03:07:07;93793.94;;;5.26;82.78
61345;BME280;47216;42.656;23.232;2022-12-07T03:09:36;93788.00;;;5.26;82.77
61345;BME280;47216;42.656;23.232;2022-12-07T03:12:08;93788.44;;;5.23;81.90
61345;BME280;47216;42.656;23.232;2022-12-07T03:14:38;93785.97;;;4.91;82.82
61345;BME280;47216;42.656;23.232;2022-12-07T03:17:09;93792.34;;;4.89;83.14
61345;BME280;47216;42.656;23.232;2022-12-07T03:19:39;93793.13;;;4.89;83.30
61345;BME280;47216;42.656;23.232;2022-12-07T03:22:07;93799.03;;;4.96;83.28
61345;BME280;47216;42.656;23.232;2022-12-07T03:24:36;93798.38;;;4.82;83.44
61345;BME280;47216;42.656;23.232;2022-12-07T03:27:06;93798.56;;;4.62;84.94
61345;BME280;47216;42.656;23.232;2022-12-07T03:29:35;93800.78;;;4.77;84.23
61345;BME280;47216;42.656;23.232;2022-12-07T03:32:04;93805.13;;;4.83;84.74
61345;BME280;47216;42.656;23.232;2022-12-07T03:34:35;93799.59;;;4.80;85.19
61345;BME280;47216;42.656;23.232;2022-12-07T03:37:05;93801.31;;;4.86;85.24
61345;BME280;47216;42.656;23.232;2022-12-07T03:39:34;93797.16;;;4.85;84.61
61345;BME280;47216;42.656;23.232;2022-12-07T03:42:03;93794.72;;;4.90;84.93
61345;BME280;47216;42.656;23.232;2022-12-07T03:44:31;93791.84;;;4.98;84.50
61345;BME280;47216;42.656;23.232;2022-12-07T03:46:59;93791.00;;;5.04;84.43
61345;BME280;47216;42.656;23.232;2022-12-07T03:49:28;93796.63;;;5.01;84.20
61345;BME280;47216;42.656;23.232;2022-12-07T03:52:00;93792.28;;;4.95;84.33
61345;BME280;47216;42.656;23.232;2022-12-07T03:54:29;93795.75;;;5.08;84.11
61345;BME280;47216;42.656;23.232;2022-12-07T03:56:56;93789.84;;;5.00;83.96
61345;BME280;47216;42.656;23.232;2022-12-07T03:59:24;93796.75;;;5.07;83.98
61345;BME280;47216;42.656;23.232;2022-12-07T04:01:52;93789.41;;;5.03;83.67
61345;BME280;47216;42.656;23.232;2022-12-07T04:04:19;93785.84;;;5.04;83.79
61345;BME280;47216;42.656;23.232;2022-12-07T04:06:46;93777.72;;;5.01;83.87
61345;BME280;47216;42.656;23.232;2022-12-07T04:09:14;93778.66;;;5.07;83.15
61345;BME280;47216;42.656;23.232;2022-12-07T04:11:41;93781.66;;;5.03;83.35
61345;BME280;47216;42.656;23.232;2022-12-07T04:14:08;93775.78;;;4.96;83.43
61345;BME280;47216;42.656;23.232;2022-12-07T04:16:47;93783.13;;;4.99;83.36
61345;BME280;47216;42.656;23.232;2022-12-07T04:19:14;93779.97;;;4.97;83.54
61345;BME280;47216;42.656;23.232;2022-12-07T04:21:40;93790.88;;;4.99;82.94
61345;BME280;47216;42.656;23.232;2022-12-07T04:24:07;93790.22;;;5.04;82.92
61345;BME280;47216;42.656;23.232;2022-12-07T04:26:35;93781.31;;;5.00;83.07
61345;BME280;47216;42.656;23.232;2022-12-07T04:29:02;93794.59;;;5.03;82.62
61345;BME280;47216;42.656;23.232;2022-12-07T04:31:28;93790.69;;;4.94;82.69
61345;BME280;47216;42.656;23.232;2022-12-07T04:33:55;93788.69;;;4.96;82.82
61345;BME280;47216;42.656;23.232;2022-12-07T04:36:21;93787.56;;;4.92;83.02
61345;BME280;47216;42.656;23.232;2022-12-07T04:38:48;93794.31;;;4.93;83.19
61345;BME280;47216;42.656;23.232;2022-12-07T04:41:14;93791.19;;;4.84;83.02
61345;BME280;47216;42.656;23.232;2022-12-07T04:43:42;93803.31;;;4.84;83.72
61345;BME280;47216;42.656;23.232;2022-12-07T04:46:09;93793.19;;;4.82;83.30
61345;BME280;47216;42.656;23.232;2022-12-07T04:48:35;93794.41;;;4.80;83.56
61345;BME280;47216;42.656;23.232;2022-12-07T04:51:02;93794.00;;;4.83;83.01
61345;BME280;47216;42.656;23.232;2022-12-07T04:53:28;93791.69;;;4.75;83.54
61345;BME280;47216;42.656;23.232;2022-12-07T04:55:55;93786.09;;;4.78;82.93
61345;BME280;47216;42.656;23.232;2022-12-07T04:58:21;93793.63;;;4.79;82.91
61345;BME280;47216;42.656;23.232;2022-12-07T05:00:49;93786.53;;;4.75;82.58
61345;BME280;47216;42.656;23.232;2022-12-07T05:03:16;93788.09;;;4.76;82.93
61345;BME280;47216;42.656;23.232;2022-12-07T05:05:42;93796.28;;;4.73;83.38
61345;BME280;47216;42.656;23.232;2022-12-07T05:08:09;93804.16;;;4.78;83.11
61345;BME280;47216;42.656;23.232;2022-12-07T05:10:35;93803.28;;;4.66;83.25
61345;BME280;47216;42.656;23.232;2022-12-07T05:13:02;93805.28;;;4.63;83.35
61345;BME280;47216;42.656;23.232;2022-12-07T05:15:28;93798.81;;;4.54;83.91
61345;BME280;47216;42.656;23.232;2022-12-07T05:17:56;93808.44;;;4.66;83.82
61345;BME280;47216;42.656;23.232;2022-12-07T05:20:23;93806.88;;;4.65;83.63
61345;BME280;47216;42.656;23.232;2022-12-07T05:22:49;93798.56;;;4.62;84.73
61345;BME280;47216;42.656;23.232;2022-12-07T05:25:16;93802.50;;;4.65;84.41
61345;BME280;47216;42.656;23.232;2022-12-07T05:27:42;93787.78;;;4.66;84.58
61345;BME280;47216;42.656;23.232;2022-12-07T05:30:09;93791.63;;;4.81;85.00
61345;BME280;47216;42.656;23.232;2022-12-07T05:32:36;93789.69;;;4.77;84.07
61345;BME280;47216;42.656;23.232;2022-12-07T05:35:04;93780.34;;;4.76;84.58
61345;BME280;47216;42.656;23.232;2022-12-07T05:37:31;93782.13;;;4.75;84.92
61345;BME280;47216;42.656;23.232;2022-12-07T05:39:57;93779.34;;;4.77;84.28
61345;BME280;47216;42.656;23.232;2022-12-07T05:42:24;93782.06;;;4.82;84.23
61345;BME280;47216;42.656;23.232;2022-12-07T05:44:50;93767.59;;;4.81;84.31
61345;BME280;47216;42.656;23.232;2022-12-07T05:47:17;93775.94;;;4.83;83.86
61345;BME280;47216;42.656;23.232;2022-12-07T05:49:43;93777.19;;;4.74;84.03
61345;BME280;47216;42.656;23.232;2022-12-07T05:52:11;93781.28;;;4.81;83.80
61345;BME280;47216;42.656;23.232;2022-12-07T05:54:38;93782.06;;;4.82;84.00
61345;BME280;47216;42.656;23.232;2022-12-07T05:57:04;93771.59;;;4.77;83.54
61345;BME280;47216;42.656;23.232;2022-12-07T05:59:31;93775.28;;;4.88;84.22
61345;BME280;47216;42.656;23.232;2022-12-07T06:01:57;93780.66;;;4.86;83.94
61345;BME280;47216;42.656;23.232;2022-12-07T06:04:24;93772.28;;;4.91;84.06
61345;BME280;47216;42.656;23.232;2022-12-07T06:06:51;93781.00;;;4.90;83.35
61345;BME280;47216;42.656;23.232;2022-12-07T06:09:20;93782.81;;;4.89;84.28
61345;BME280;47216;42.656;23.232;2022-12-07T06:11:47;93785.13;;;4.97;83.74
61345;BME280;47216;42.656;23.232;2022-12-07T06:14:31;93792.41;;;4.82;83.59
61345;BME280;47216;42.656;23.232;2022-12-07T06:16:57;93788.84;;;4.83;84.26
61345;BME280;47216;42.656;23.232;2022-12-07T06:19:24;93791.09;;;4.73;84.59
61345;BME280;47216;42.656;23.232;2022-12-07T06:21:50;93794.41;;;4.80;84.83
61345;BME280;47216;42.656;23.232;2022-12-07T06:24:18;93792.78;;;4.86;85.02
61345;BME280;47216;42.656;23.232;2022-12-07T06:26:45;93792.34;;;4.89;84.72
61345;BME280;47216;42.656;23.232;2022-12-07T06:29:12;93799.03;;;4.96;85.32
61345;BME280;47216;42.656;23.232;2022-12-07T06:31:38;93800.47;;;4.92;85.46
61345;BME280;47216;42.656;23.232;2022-12-07T06:34:05;93802.72;;;5.07;85.18
61345;BME280;47216;42.656;23.232;2022-12-07T06:36:32;93794.69;;;5.15;84.89
61345;BME280;47216;42.656;23.232;2022-12-07T06:38:59;93802.94;;;5.24;84.38
61345;BME280;47216;42.656;23.232;2022-12-07T06:41:27;93791.59;;;5.25;84.26
61345;BME280;47216;42.656;23.232;2022-12-07T06:43:54;93806.66;;;5.28;84.04
61345;BME280;47216;42.656;23.232;2022-12-07T06:46:21;93799.06;;;5.33;84.27
61345;BME280;47216;42.656;23.232;2022-12-07T06:48:47;93808.41;;;5.34;83.74
61345;BME280;47216;42.656;23.232;2022-12-07T06:51:14;93805.44;;;5.31;83.79
61345;BME280;47216;42.656;23.232;2022-12-07T06:53:40;93809.97;;;5.35;83.39
61345;BME280;47216;42.656;23.232;2022-12-07T06:56:07;93804.88;;;5.47;83.23
61345;BME280;47216;42.656;23.232;2022-12-07T06:58:35;93812.56;;;5.35;83.27
61345;BME280;47216;42.656;23.232;2022-12-07T07:01:01;93818.81;;;5.28;83.88
61345;BME280;47216;42.656;23.232;2022-12-07T07:03:28;93814.09;;;5.24;84.17
61345;BME280;47216;42.656;23.232;2022-12-07T07:05:55;93810.69;;;5.24;84.46
61345;BME280;47216;42.656;23.232;2022-12-07T07:08:21;93807.81;;;5.32;84.59
61345;BME280;47216;42.656;23.232;2022-12-07T07:10:48;93806.59;;;5.35;84.00
61345;BME280;47216;42.656;23.232;2022-12-07T07:13:14;93809.91;;;5.42;84.23
61345;BME280;47216;42.656;23.232;2022-12-07T07:15:42;93802.94;;;5.42;83.65
61345;BME280;47216;42.656;23.232;2022-12-07T07:18:09;93802.53;;;5.45;83.51
61345;BME280;47216;42.656;23.232;2022-12-07T07:20:35;93805.66;;;5.47;83.18
61345;BME280;47216;42.656;23.232;2022-12-07T07:23:02;93811.25;;;5.44;83.59
61345;BME280;47216;42.656;23.232;2022-12-07T07:25:29;93817.22;;;5.45;83.75
61345;BME280;47216;42.656;23.232;2022-12-07T07:27:55;93818.81;;;5.46;83.63
61345;BME280;47216;42.656;23.232;2022-12-07T07:30:22;93817.16;;;5.52;83.25
61345;BME280;47216;42.656;23.232;2022-12-07T07:32:50;93815.44;;;5.45;82.38
61345;BME280;47216;42.656;23.232;2022-12-07T07:35:16;93815.28;;;5.40;82.65
61345;BME280;47216;42.656;23.232;2022-12-07T07:37:43;93814.16;;;5.36;82.78
61345;BME280;47216;42.656;23.232;2022-12-07T07:40:10;93807.81;;;5.32;83.61
61345;BME280;47216;42.656;23.232;2022-12-07T07:42:36;93815.22;;;5.29;83.82
61345;BME280;47216;42.656;23.232;2022-12-07T07:45:03;93811.34;;;5.38;84.29
61345;BME280;47216;42.656;23.232;2022-12-07T07:47:30;93815.72;;;5.37;84.00
61345;BME280;47216;42.656;23.232;2022-12-07T07:49:58;93816.44;;;5.44;83.41
61345;BME280;47216;42.656;23.232;2022-12-07T07:52:25;93824.00;;;5.46;83.91
61345;BME280;47216;42.656;23.232;2022-12-07T07:54:51;93819.88;;;5.57;83.46
61345;BME280;47216;42.656;23.232;2022-12-07T07:57:18;93819.59;;;5.46;83.22
61345;BME280;47216;42.656;23.232;2022-12-07T07:59:44;93807.81;;;5.51;83.64
61345;BME280;47216;42.656;23.232;2022-12-07T08:02:12;93814.84;;;5.62;82.99
61345;BME280;47216;42.656;23.232;2022-12-07T08:04:40;93806.06;;;5.63;83.26
61345;BME280;47216;42.656;23.232;2022-12-07T08:07:08;93811.47;;;5.61;83.12
61345;BME280;47216;42.656;23.232;2022-12-07T08:09:34;93810.91;;;5.59;83.46
61345;BME280;47216;42.656;23.232;2022-12-07T08:12:01;93813.97;;;5.68;82.87
61345;BME280;47216;42.656;23.232;2022-12-07T08:14:27;93806.88;;;5.63;82.99
61345;BME280;47216;42.656;23.232;2022-12-07T08:16:54;93811.81;;;5.65;82.81
61345;BME280;47216;42.656;23.232;2022-12-07T08:19:21;93809.81;;;5.67;82.91
61345;BME280;47216;42.656;23.232;2022-12-07T08:21:47;93803.50;;;5.63;82.96
61345;BME280;47216;42.656;23.232;2022-12-07T08:24:15;93808.72;;;5.75;82.30
61345;BME280;47216;42.656;23.232;2022-12-07T08:26:42;93807.22;;;5.67;82.22
61345;BME280;47216;42.656;23.232;2022-12-07T08:29:09;93803.88;;;5.66;82.48
61345;BME280;47216;42.656;23.232;2022-12-07T08:31:35;93807.09;;;5.62;82.45
61345;BME280;47216;42.656;23.232;2022-12-07T08:34:02;93810.53;;;5.56;83.29
61345;BME280;47216;42.656;23.232;2022-12-07T08:36:28;93802.63;;;5.69;82.75
61345;BME280;47216;42.656;23.232;2022-12-07T08:38:55;93807.09;;;5.62;82.62
61345;BME280;47216;42.656;23.232;2022-12-07T08:41:23;93801.75;;;5.75;82.81
61345;BME280;47216;42.656;23.232;2022-12-07T08:43:50;93804.91;;;5.77;82.60
61345;BME280;47216;42.656;23.232;2022-12-07T08:46:18;93802.19;;;5.72;82.56
61345;BME280;47216;42.656;23.232;2022-12-07T08:48:46;93801.03;;;5.68;82.92
61345;BME280;47216;42.656;23.232;2022-12-07T08:51:15;93802.19;;;5.72;82.42
61345;BME280;47216;42.656;23.232;2022-12-07T08:53:42;93798.94;;;5.77;82.34
61345;BME280;47216;42.656;23.232;2022-12-07T08:56:16;93796.50;;;5.63;82.33
61345;BME280;47216;42.656;23.232;2022-12-07T08:58:45;93788.41;;;5.60;83.15
61345;BME280;47216;42.656;23.232;2022-12-07T09:01:11;93796.34;;;5.77;82.81
61345;BME280;47216;42.656;23.232;2022-12-07T09:03:38;93786.09;;;5.70;83.31
61345;BME280;47216;42.656;23.232;2022-12-07T09:06:05;93776.44;;;5.77;83.13
61345;BME280;47216;42.656;23.232;2022-12-07T09:08:34;93783.09;;;5.73;83.29
61345;BME280;47216;42.656;23.232;2022-12-07T09:11:02;93780.25;;;5.75;83.81
61345;BME280;47216;42.656;23.232;2022-12-07T09:13:29;93770.28;;;5.78;83.50
61345;BME280;47216;42.656;23.232;2022-12-07T09:15:57;93770.28;;;5.78;83.45
61345;BME280;47216;42.656;23.232;2022-12-07T09:18:24;93778.47;;;5.75;83.66
61345;BME280;47216;42.656;23.232;2022-12-07T09:20:51;93774.00;;;5.82;83.19
61345;BME280;47216;42.656;23.232;2022-12-07T09:23:17;93765.16;;;5.90;83.48
61345;BME280;47216;42.656;23.232;2022-12-07T09:25:44;93764.50;;;5.95;82.92
61345;BME280;47216;42.656;23.232;2022-12-07T09:28:10;93768.28;;;6.10;82.27
61345;BME280;47216;42.656;23.232;2022-12-07T09:30:37;93745.84;;;6.04;82.74
61345;BME280;47216;42.656;23.232;2022-12-07T09:33:05;93750.16;;;6.10;82.51
61345;BME280;47216;42.656;23.232;2022-12-07T09:35:31;93754.22;;;6.18;82.59
61345;BME280;47216;42.656;23.232;2022-12-07T09:37:58;93732.53;;;6.31;81.95
61345;BME280;47216;42.656;23.232;2022-12-07T09:40:25;93732.44;;;6.61;80.54
61345;BME280;47216;42.656;23.232;2022-12-07T09:42:52;93740.72;;;6.40;80.79
61345;BME280;47216;42.656;23.232;2022-12-07T09:45:21;93743.91;;;6.42;80.60
61345;BME280;47216;42.656;23.232;2022-12-07T09:47:48;93741.97;;;6.49;80.31
61345;BME280;47216;42.656;23.232;2022-12-07T09:50:17;93731.97;;;6.64;80.40
61345;BME280;47216;42.656;23.232;2022-12-07T09:52:45;93730.16;;;6.77;79.99
61345;BME280;47216;42.656;23.232;2022-12-07T09:55:14;93731.09;;;6.70;80.36
61345;BME280;47216;42.656;23.232;2022-12-07T09:57:41;93728.59;;;6.76;79.60
61345;BME280;47216;42.656;23.232;2022-12-07T10:00:12;93727.25;;;6.73;79.29
61345;BME280;47216;42.656;23.232;2022-12-07T10:02:39;93725.66;;;6.84;79.84
61345;BME280;47216;42.656;23.232;2022-12-07T10:05:07;93728.81;;;6.86;79.67
61345;BME280;47216;42.656;23.232;2022-12-07T10:07:38;93721.38;;;6.89;79.20
61345;BME280;47216;42.656;23.232;2022-12-07T10:10:06;93722.72;;;6.92;79.48
61345;BME280;47216;42.656;23.232;2022-12-07T10:12:50;93720.22;;;6.97;78.93
61345;BME280;47216;42.656;23.232;2022-12-07T10:15:18;93712.78;;;7.01;78.76
61345;BME280;47216;42.656;23.232;2022-12-07T10:17:47;93707.03;;;7.10;78.70
61345;BME280;47216;42.656;23.232;2022-12-07T10:20:15;93702.53;;;7.06;78.86
61345;BME280;47216;42.656;23.232;2022-12-07T10:22:57;93705.78;;;7.13;78.65
61345;BME280;47216;42.656;23.232;2022-12-07T10:25:25;93693.34;;;7.27;77.53
61345;BME280;47216;42.656;23.232;2022-12-07T10:27:59;93691.97;;;7.36;77.55
61345;BME280;47216;42.656;23.232;2022-12-07T10:30:26;93687.63;;;7.42;77.92
61345;BME280;47216;42.656;23.232;2022-12-07T10:32:53;93685.03;;;7.53;77.67
61345;BME280;47216;42.656;23.232;2022-12-07T10:35:21;93671.53;;;7.40;77.29
61345;BME280;47216;42.656;23.232;2022-12-07T10:37:49;93669.06;;;7.62;77.25
61345;BME280;47216;42.656;23.232;2022-12-07T10:40:28;93676.78;;;7.56;77.12
61345;BME280;47216;42.656;23.232;2022-12-07T10:43:01;93668.91;;;7.51;77.21
61345;BME280;47216;42.656;23.232;2022-12-07T10:45:28;93661.75;;;7.58;77.37
61345;BME280;47216;42.656;23.232;2022-12-07T10:47:56;93666.00;;;7.65;77.93
61345;BME280;47216;42.656;23.232;2022-12-07T10:53:26;93664.84;;;7.72;77.36
61345;BME280;47216;42.656;23.232;2022-12-07T10:56:15;93656.84;;;7.91;76.74
61345;BME280;47216;42.656;23.232;2022-12-07T10:58:48;93655.59;;;7.93;77.13
61345;BME280;47216;42.656;23.232;2022-12-07T11:01:21;93648.66;;;7.99;75.69
61345;BME280;47216;42.656;23.232;2022-12-07T11:03:53;93645.84;;;8.00;76.05
61345;BME280;47216;42.656;23.232;2022-12-07T11:06:25;93641.03;;;7.92;76.53
61345;BME280;47216;42.656;23.232;2022-12-07T11:09:00;93638.69;;;7.91;76.20
61345;BME280;47216;42.656;23.232;2022-12-07T11:11:33;93630.16;;;8.29;75.07
61345;BME280;47216;42.656;23.232;2022-12-07T11:14:03;93628.66;;;8.33;74.26
61345;BME280;47216;42.656;23.232;2022-12-07T11:16:37;93627.66;;;8.34;74.59
61345;BME280;47216;42.656;23.232;2022-12-07T11:19:09;93625.69;;;8.41;73.78
61345;BME280;47216;42.656;23.232;2022-12-07T11:21:44;93625.16;;;8.61;72.79
61345;BME280;47216;42.656;23.232;2022-12-07T11:24:14;93631.00;;;8.52;73.07
61345;BME280;47216;42.656;23.232;2022-12-07T11:26:47;93620.69;;;8.57;73.25
61345;BME280;47216;42.656;23.232;2022-12-07T11:29:25;93613.81;;;8.68;73.10
61345;BME280;47216;42.656;23.232;2022-12-07T11:31:58;93610.09;;;8.80;72.41
61345;BME280;47216;42.656;23.232;2022-12-07T11:34:34;93613.53;;;8.86;72.38
61345;BME280;47216;42.656;23.232;2022-12-07T11:37:05;93603.31;;;9.01;71.34
61345;BME280;47216;42.656;23.232;2022-12-07T11:39:39;93607.50;;;9.08;72.13
61345;BME280;47216;42.656;23.232;2022-12-07T11:42:12;93607.22;;;9.04;71.30
61345;BME280;47216;42.656;23.232;2022-12-07T11:44:42;93607.22;;;9.04;71.50
61345;BME280;47216;42.656;23.232;2022-12-07T11:47:13;93593.91;;;9.22;70.67
61345;BME280;47216;42.656;23.232;2022-12-07T11:49:43;93601.94;;;9.21;69.98
61345;BME280;47216;42.656;23.232;2022-12-07T11:52:16;93594.50;;;9.30;70.07
61345;BME280;47216;42.656;23.232;2022-12-07T11:54:44;93595.81;;;9.32;70.08
61345;BME280;47216;42.656;23.232;2022-12-07T11:57:14;93588.06;;;9.37;68.75
61345;BME280;47216;42.656;23.232;2022-12-07T11:59:45;93594.38;;;9.46;68.86
61345;BME280;47216;42.656;23.232;2022-12-07T12:02:14;93590.69;;;9.42;68.87
61345;BME280;47216;42.656;23.232;2022-12-07T12:04:46;93585.25;;;9.44;69.47
61345;BME280;47216;42.656;23.232;2022-12-07T12:07:14;93578.03;;;9.51;69.04
61345;BME280;47216;42.656;23.232;2022-12-07T12:09:44;93566.75;;;9.73;68.11
61345;BME280;47216;42.656;23.232;2022-12-07T12:12:25;93561.97;;;9.59;68.62
61345;BME280;47216;42.656;23.232;2022-12-07T12:15:01;93561.50;;;9.67;68.23
61345;BME280;47216;42.656;23.232;2022-12-07T12:20:16;93548.97;;;9.59;69.03
61345;BME280;47216;42.656;23.232;2022-12-07T12:22:46;93562.75;;;9.60;68.50
61345;BME280;47216;42.656;23.232;2022-12-07T12:25:17;93544.06;;;9.68;68.31
61345;BME280;47216;42.656;23.232;2022-12-07T12:27:48;93546.38;;;9.64;68.79
61345;BME280;47216;42.656;23.232;2022-12-07T12:30:29;93548.97;;;9.59;69.38
61345;BME280;47216;42.656;23.232;2022-12-07T12:33:01;93548.44;;;9.62;68.29
61345;BME280;47216;42.656;23.232;2022-12-07T12:35:29;93544.44;;;9.50;68.91
61345;BME280;47216;42.656;23.232;2022-12-07T12:38:23;93539.97;;;9.45;69.59
61345;BME280;47216;42.656;23.232;2022-12-07T12:40:52;93530.81;;;9.70;68.95
61345;BME280;47216;42.656;23.232;2022-12-07T12:48:53;93533.16;;;10.08;69.51
61345;BME280;47216;42.656;23.232;2022-12-07T12:54:05;93530.91;;;10.27;66.97
61345;BME280;47216;42.656;23.232;2022-12-07T12:56:38;93538.94;;;10.21;67.43
61345;BME280;47216;42.656;23.232;2022-12-07T12:59:24;93541.91;;;10.35;67.17
61345;BME280;47216;42.656;23.232;2022-12-07T13:01:50;93533.34;;;10.39;67.04
61345;BME280;47216;42.656;23.232;2022-12-07T13:04:29;93534.38;;;10.33;65.94
61345;BME280;47216;42.656;23.232;2022-12-07T13:06:58;93534.63;;;10.32;66.31
61345;BME280;47216;42.656;23.232;2022-12-07T13:09:26;93539.06;;;10.36;66.71
61345;BME280;47216;42.656;23.232;2022-12-07T13:11:58;93530.19;;;10.37;66.42
61345;BME280;47216;42.656;23.232;2022-12-07T13:14:37;93532.84;;;10.42;65.56
61345;BME280;47216;42.656;23.232;2022-12-07T13:17:07;93529.97;;;10.44;65.45
61345;BME280;47216;42.656;23.232;2022-12-07T13:25:18;93530.19;;;10.37;65.60
61345;BME280;47216;42.656;23.232;2022-12-07T13:27:47;93529.72;;;10.45;64.99